SBPG/PNG METAR and TAF weather

Enter ICAO airport designator
Station Type Date Time Source
SBPG METAR 2019/08/23 18:00 UTC NOAA

SBPG 231800Z 25006KT 9999 BKN040 15/11 Q1023


Station Type Date Time Source
SBPG Decoded METAR 2019/08/23 18:00 UTC NOAA

Station name not available
Aug 23, 2019 - 02:00 PM EDT / 2019.08.23 1800 UTC
Wind: from the WSW (250 degrees) at 7 MPH (6 KT):0
Visibility: greater than 7 mile(s):0
Sky conditions: mostly cloudy
Temperature: 59 F (15 C)
Dew Point: 51 F (11 C)
Relative Humidity: 76%
Pressure (altimeter): 30.21 in. Hg (1023 hPa)
ob: SBPG 231800Z 25006KT 9999 BKN040 15/11 Q1023
cycle: 18

Station Type Date Time Source
SBPG TAF UTC NOAA

Error!

Example: see airport list